createdAt,value
2018-04-22T00:00:01.514Z,93983.25
2018-04-22T00:02:29.060Z,93981.70
2018-04-22T00:04:56.651Z,93974.60
2018-04-22T00:07:24.237Z,93975.42
2018-04-22T00:09:51.787Z,93975.57
2018-04-22T00:12:19.323Z,93969.81
2018-04-22T00:14:47.004Z,93972.05
2018-04-22T00:17:14.601Z,93961.25
2018-04-22T00:19:42.160Z,93967.65
2018-04-22T00:22:09.888Z,93963.55
2018-04-22T00:24:37.420Z,93961.45
2018-04-22T00:27:04.956Z,93961.45
2018-04-22T00:29:32.531Z,93954.28
2018-04-22T00:32:00.069Z,93957.76
2018-04-22T00:34:27.619Z,93954.07
2018-04-22T00:36:55.332Z,93955.41
2018-04-22T00:39:22.858Z,93957.20
2018-04-22T00:41:50.413Z,93964.75
2018-04-22T00:44:18.143Z,93972.56
2018-04-22T00:46:45.681Z,93977.63
2018-04-22T00:49:13.267Z,93982.65
2018-04-22T00:51:40.921Z,93978.97
2018-04-22T00:54:20.204Z,93984.91
2018-04-22T00:56:47.961Z,93982.45
2018-04-22T00:59:15.499Z,93981.11
2018-04-22T01:01:43.035Z,93973.17
2018-04-22T01:04:10.606Z,93979.59
2018-04-22T01:06:38.155Z,93975.09
2018-04-22T01:09:06.652Z,93972.70
2018-04-22T01:11:34.501Z,93973.20
2018-04-22T01:14:02.054Z,93974.88
2018-04-22T01:16:29.607Z,93976.60
2018-04-22T01:18:57.179Z,93972.20
2018-04-22T01:21:24.719Z,93970.16
2018-04-22T01:23:52.263Z,93966.54
2018-04-22T01:26:19.833Z,93966.19
2018-04-22T01:28:47.377Z,93957.53
2018-04-22T01:31:14.938Z,93960.55
2018-04-22T01:33:42.746Z,93956.52
2018-04-22T01:36:10.292Z,93959.48
2018-04-22T01:38:37.833Z,93955.80
2018-04-22T01:41:05.372Z,93956.23
2018-04-22T01:43:32.901Z,93955.05
2018-04-22T01:46:00.692Z,93952.46
2018-04-22T01:48:28.237Z,93949.20
2018-04-22T01:50:55.787Z,93950.59
2018-04-22T01:53:23.347Z,93950.70
2018-04-22T01:55:50.881Z,93949.11
2018-04-22T01:58:18.935Z,93948.76
2018-04-22T02:00:46.601Z,93948.84
2018-04-22T02:03:14.135Z,93941.03
2018-04-22T02:05:41.663Z,93939.09
2018-04-22T02:08:09.626Z,93934.14
2018-04-22T02:10:37.160Z,93933.86
2018-04-22T02:13:04.695Z,93935.17
2018-04-22T02:15:32.288Z,93936.05
2018-04-22T02:17:59.812Z,93934.03
2018-04-22T02:20:27.335Z,93939.94
2018-04-22T02:22:55.042Z,93940.38
2018-04-22T02:25:22.572Z,93940.91
2018-04-22T02:27:50.110Z,93938.00
2018-04-22T02:30:17.686Z,93935.14
2018-04-22T02:32:45.223Z,93934.29
2018-04-22T02:35:12.766Z,93921.42
2018-04-22T02:37:40.339Z,93921.92
2018-04-22T02:40:07.876Z,93919.39
2018-04-22T02:42:35.407Z,93919.96
2018-04-22T02:45:02.979Z,93920.49
2018-04-22T02:47:30.508Z,93922.64
2018-04-22T02:49:58.050Z,93924.44
2018-04-22T02:52:25.735Z,93927.90
2018-04-22T02:54:53.258Z,93927.97
2018-04-22T02:57:20.790Z,93929.17
2018-04-22T02:59:49.331Z,93919.27
2018-04-22T03:02:16.866Z,93917.23
2018-04-22T03:04:44.401Z,93915.66
2018-04-22T03:07:12.119Z,93910.34
2018-04-22T03:09:39.657Z,93909.23
2018-04-22T03:12:07.191Z,93906.31
2018-04-22T03:14:34.787Z,93905.52
2018-04-22T03:17:02.329Z,93906.36
2018-04-22T03:19:29.872Z,93900.71
2018-04-22T03:21:57.444Z,93908.58
2018-04-22T03:24:24.978Z,93915.26
2018-04-22T03:26:52.517Z,93913.27
2018-04-22T03:29:20.068Z,93921.99
2018-04-22T03:31:47.595Z,93929.15
2018-04-22T03:34:15.128Z,93929.61
2018-04-22T03:36:42.886Z,93933.68
2018-04-22T03:39:10.418Z,93936.13
2018-04-22T03:41:37.952Z,93940.10
2018-04-22T03:44:05.508Z,93944.87
2018-04-22T03:46:33.051Z,93946.48
2018-04-22T03:49:00.583Z,93946.23
2018-04-22T03:51:28.443Z,93936.20
2018-04-22T03:53:55.980Z,93943.29
2018-04-22T03:56:23.519Z,93948.69
2018-04-22T03:58:51.092Z,93951.83
2018-04-22T04:01:18.645Z,93950.75
2018-04-22T04:03:46.190Z,93951.27
2018-04-22T04:06:14.061Z,93953.57
2018-04-22T04:08:41.601Z,93944.42
2018-04-22T04:11:09.185Z,93937.41
2018-04-22T04:13:36.902Z,93931.66
2018-04-22T04:16:04.454Z,93937.17
2018-04-22T04:21:51.208Z,93924.34
2018-04-22T04:24:40.052Z,93922.11
2018-04-22T04:27:23.255Z,93928.73
2018-04-22T04:29:50.991Z,93925.31
2018-04-22T04:32:18.598Z,93931.08
2018-04-22T04:34:46.144Z,93931.52
2018-04-22T04:37:14.668Z,93923.18
2018-04-22T04:39:42.237Z,93920.96
2018-04-22T04:42:09.785Z,93922.86
2018-04-22T04:44:37.391Z,93922.61
2018-04-22T04:47:04.939Z,93915.50
2018-04-22T04:49:32.480Z,93908.68
2018-04-22T04:52:00.150Z,93897.73
2018-04-22T04:54:27.707Z,93884.55
2018-04-22T04:56:55.262Z,93886.63
2018-04-22T04:59:22.871Z,93890.31
2018-04-22T05:01:50.423Z,93892.22
2018-04-22T05:04:17.960Z,93892.24
2018-04-22T05:06:45.552Z,93882.94
2018-04-22T05:09:13.100Z,93883.95
2018-04-22T05:11:40.631Z,93875.08
2018-04-22T05:14:08.292Z,93875.64
2018-04-22T05:16:35.880Z,93879.05
2018-04-22T05:19:03.440Z,93876.66
2018-04-22T05:21:31.130Z,93875.74
2018-04-22T05:23:58.673Z,93878.10
2018-04-22T05:26:26.241Z,93873.16
2018-04-22T05:28:53.847Z,93872.27
2018-04-22T05:31:21.396Z,93884.72
2018-04-22T05:33:48.944Z,93889.27
2018-04-22T05:36:16.682Z,93889.92
2018-04-22T05:38:44.244Z,93892.34
2018-04-22T05:41:11.783Z,93899.08
2018-04-22T05:43:39.353Z,93901.03
2018-04-22T05:46:06.917Z,93904.52
2018-04-22T05:48:34.471Z,93911.42
2018-04-22T05:51:02.151Z,93907.91
2018-04-22T05:53:29.756Z,93909.65
2018-04-22T05:55:57.307Z,93910.91
2018-04-22T05:58:25.160Z,93908.84
2018-04-22T06:00:52.723Z,93910.41
2018-04-22T06:03:20.274Z,93908.55
2018-04-22T06:05:48.014Z,93909.74
2018-04-22T06:08:15.558Z,93902.04
2018-04-22T06:10:43.099Z,93910.68
2018-04-22T06:13:10.964Z,93911.75
2018-04-22T06:15:38.508Z,93908.71
2018-04-22T06:18:06.079Z,93920.02
2018-04-22T06:20:33.802Z,93911.23
2018-04-22T06:23:01.353Z,93915.30
2018-04-22T06:25:28.914Z,93917.84
2018-04-22T06:27:56.627Z,93912.94
2018-04-22T06:30:24.175Z,93920.40
2018-04-22T06:32:51.720Z,93915.09
2018-04-22T06:35:19.409Z,93915.95
2018-04-22T06:37:46.988Z,93911.02
2018-04-22T06:40:14.588Z,93908.89
2018-04-22T06:42:42.144Z,93910.47
2018-04-22T06:45:09.680Z,93902.31
2018-04-22T06:47:37.576Z,93896.71
2018-04-22T06:50:05.137Z,93894.73
2018-04-22T06:52:32.688Z,93899.71
2018-04-22T06:55:00.576Z,93901.48
2018-04-22T06:57:28.111Z,93904.63
2018-04-22T06:59:55.660Z,93896.14
2018-04-22T07:02:23.245Z,93898.08
2018-04-22T07:04:50.792Z,93895.30
2018-04-22T07:07:18.339Z,93893.62
2018-04-22T07:09:45.953Z,93899.44
2018-04-22T07:12:13.515Z,93895.27
2018-04-22T07:14:41.079Z,93896.60
2018-04-22T07:17:09.084Z,93889.80
2018-04-22T07:19:36.637Z,93885.79
2018-04-22T07:22:04.187Z,93883.56
2018-04-22T07:24:31.776Z,93879.89
2018-04-22T07:26:59.333Z,93881.85
2018-04-22T07:29:26.896Z,93878.16
2018-04-22T07:31:54.656Z,93881.80
2018-04-22T07:34:22.244Z,93882.00
2018-04-22T07:36:49.791Z,93887.52
2018-04-22T07:39:17.482Z,93880.35
2018-04-22T07:41:45.048Z,93887.53
2018-04-22T07:44:12.591Z,93891.08
2018-04-22T07:46:40.405Z,93890.66
2018-04-22T07:49:07.969Z,93886.91
2018-04-22T07:51:35.510Z,93889.71
2018-04-22T07:54:03.205Z,93897.08
2018-04-22T07:56:30.765Z,93906.05
2018-04-22T07:58:58.310Z,93898.72
2018-04-22T08:01:26.024Z,93902.19
2018-04-22T08:03:53.567Z,93898.69
2018-04-22T08:06:21.123Z,93893.22
2018-04-22T08:08:48.704Z,93901.78
2018-04-22T08:11:16.239Z,93900.36
2018-04-22T08:13:43.790Z,93889.89
2018-04-22T08:16:11.648Z,93891.47
2018-04-22T08:18:39.193Z,93884.27
2018-04-22T08:21:07.488Z,93888.17
2018-04-22T08:23:35.055Z,93888.78
2018-04-22T08:26:02.629Z,93893.09
2018-04-22T08:28:30.242Z,93892.76
2018-04-22T08:30:57.930Z,93887.85
2018-04-22T08:33:25.472Z,93879.58
2018-04-22T08:35:53.015Z,93876.11
2018-04-22T08:38:20.652Z,93876.37
2018-04-22T08:40:48.221Z,93877.98
2018-04-22T08:43:15.774Z,93880.52
2018-04-22T08:45:43.459Z,93870.91
2018-04-22T08:48:11.012Z,93869.63
2018-04-22T08:50:38.584Z,93870.63
2018-04-22T08:53:06.149Z,93876.03
2018-04-22T08:55:33.719Z,93864.75
2018-04-22T08:58:01.256Z,93862.09
2018-04-22T09:00:29.006Z,93857.72
2018-04-22T09:02:56.565Z,93853.22
2018-04-22T09:05:24.173Z,93859.09
2018-04-22T09:07:51.776Z,93852.03
2018-04-22T09:10:19.336Z,93848.73
2018-04-22T09:12:46.870Z,93842.96
2018-04-22T09:15:14.433Z,93845.35
2018-04-22T09:17:42.000Z,93841.97
2018-04-22T09:20:09.542Z,93838.27
2018-04-22T09:22:37.136Z,93836.08
2018-04-22T09:25:04.680Z,93835.75
2018-04-22T09:27:32.238Z,93835.43
2018-04-22T09:30:00.102Z,93831.38
2018-04-22T09:32:27.662Z,93835.14
2018-04-22T09:34:55.213Z,93833.25
2018-04-22T09:37:22.935Z,93835.87
2018-04-22T09:39:50.505Z,93823.39
2018-04-22T09:42:18.067Z,93820.00
2018-04-22T09:44:45.646Z,93817.23
2018-04-22T09:47:13.185Z,93829.38
2018-04-22T09:49:40.743Z,93826.89
2018-04-22T09:52:08.305Z,93830.98
2018-04-22T09:54:35.854Z,93823.73
2018-04-22T09:57:03.381Z,93817.59
2018-04-22T09:59:31.064Z,93824.81
2018-04-22T10:01:58.614Z,93822.63
2018-04-22T10:04:28.975Z,93820.14
2018-04-22T10:06:56.700Z,93817.30
2018-04-22T10:09:24.271Z,93818.11
2018-04-22T10:11:51.818Z,93820.73
2018-04-22T10:14:19.400Z,93819.92
2018-04-22T10:16:46.951Z,93821.91
2018-04-22T10:19:14.532Z,93821.39
2018-04-22T10:21:42.255Z,93815.78
2018-04-22T10:24:09.799Z,93814.16
2018-04-22T10:26:37.349Z,93807.55
2018-04-22T10:29:04.955Z,93804.19
2018-04-22T10:31:32.505Z,93807.89
2018-04-22T10:34:00.098Z,93802.95
2018-04-22T10:36:27.988Z,93799.02
2018-04-22T10:38:55.556Z,93793.42
2018-04-22T10:41:23.127Z,93797.37
2018-04-22T10:43:50.829Z,93798.13
2018-04-22T10:46:18.380Z,93789.07
2018-04-22T10:48:45.924Z,93787.98
2018-04-22T10:51:13.653Z,93788.23
2018-04-22T10:53:41.219Z,93785.61
2018-04-22T10:56:08.779Z,93784.04
2018-04-22T10:58:36.475Z,93781.28
2018-04-22T11:01:04.040Z,93767.34
2018-04-22T11:03:31.597Z,93768.34
2018-04-22T11:05:59.189Z,93765.84
2018-04-22T11:08:26.751Z,93770.30
2018-04-22T11:10:54.342Z,93769.36
2018-04-22T11:13:22.080Z,93758.82
2018-04-22T11:15:49.617Z,93755.52
2018-04-22T11:18:17.188Z,93753.44
2018-04-22T11:20:44.759Z,93753.73
2018-04-22T11:23:12.299Z,93749.13
2018-04-22T11:25:39.868Z,93737.84
2018-04-22T11:28:07.619Z,93741.95
2018-04-22T11:30:35.167Z,93744.42
2018-04-22T11:33:02.704Z,93739.47
2018-04-22T11:35:30.448Z,93735.61
2018-04-22T11:37:57.993Z,93734.58
2018-04-22T11:40:25.542Z,93729.12
2018-04-22T11:42:53.123Z,93731.77
2018-04-22T11:45:20.656Z,93727.58
2018-04-22T11:47:48.533Z,93717.82
2018-04-22T11:50:16.084Z,93718.38
2018-04-22T11:52:43.638Z,93713.69
2018-04-22T11:55:11.203Z,93707.64
2018-04-22T11:57:38.749Z,93711.97
2018-04-22T12:00:06.300Z,93704.63
2018-04-22T12:02:34.243Z,93704.55
2018-04-22T12:05:01.804Z,93697.89
2018-04-22T12:07:29.358Z,93706.64
2018-04-22T12:09:57.088Z,93696.75
2018-04-22T12:12:24.644Z,93695.80
2018-04-22T12:14:52.212Z,93692.11
2018-04-22T12:17:19.948Z,93693.16
2018-04-22T12:19:47.515Z,93683.52
2018-04-22T12:22:15.085Z,93684.84
2018-04-22T12:24:42.703Z,93679.00
2018-04-22T12:27:10.264Z,93681.23
2018-04-22T12:29:37.841Z,93671.83
2018-04-22T12:32:05.439Z,93675.11
2018-04-22T12:34:32.988Z,93665.66
2018-04-22T12:37:00.532Z,93668.67
2018-04-22T12:39:28.256Z,93659.14
2018-04-22T12:41:55.804Z,93653.81
2018-04-22T12:44:23.359Z,93655.91
2018-04-22T12:46:50.957Z,93647.95
2018-04-22T12:49:18.544Z,93647.30
2018-04-22T12:51:46.087Z,93645.30
2018-04-22T12:54:13.683Z,93651.81
2018-04-22T12:56:41.216Z,93636.07
2018-04-22T12:59:08.778Z,93637.66
2018-04-22T13:01:36.375Z,93642.08
2018-04-22T13:04:03.947Z,93641.23
2018-04-22T13:06:31.491Z,93636.61
2018-04-22T13:08:59.100Z,93630.30
2018-04-22T13:11:26.644Z,93631.63
2018-04-22T13:13:54.179Z,93629.18
2018-04-22T13:16:22.028Z,93625.78
2018-04-22T13:18:49.571Z,93628.37
2018-04-22T13:21:17.143Z,93625.23
2018-04-22T13:23:44.890Z,93626.12
2018-04-22T13:26:12.428Z,93619.58
2018-04-22T13:28:40.000Z,93621.92
2018-04-22T13:31:07.740Z,93619.68
2018-04-22T13:33:35.281Z,93623.55
2018-04-22T13:36:02.830Z,93616.59
2018-04-22T13:38:30.558Z,93617.00
2018-04-22T13:40:58.140Z,93616.13
2018-04-22T13:43:25.696Z,93613.08
2018-04-22T13:45:53.267Z,93618.88
2018-04-22T13:48:20.835Z,93611.38
2018-04-22T13:50:48.371Z,93607.69
2018-04-22T13:53:16.090Z,93607.10
2018-04-22T13:55:43.644Z,93605.41
2018-04-22T13:58:11.257Z,93603.97
2018-04-22T14:00:38.838Z,93603.94
2018-04-22T14:03:06.416Z,93601.87
2018-04-22T14:05:33.984Z,93599.42
2018-04-22T14:08:01.717Z,93599.78
2018-04-22T14:10:29.279Z,93595.72
2018-04-22T14:12:56.856Z,93601.22
2018-04-22T14:15:24.517Z,93602.66
2018-04-22T14:17:52.073Z,93595.62
2018-04-22T14:20:19.626Z,93595.91
2018-04-22T14:22:47.203Z,93598.52
2018-04-22T14:25:14.778Z,93594.02
2018-04-22T14:27:42.344Z,93597.53
2018-04-22T14:30:10.053Z,93605.13
2018-04-22T14:32:37.596Z,93594.96
2018-04-22T14:35:05.142Z,93597.94
2018-04-22T14:37:32.742Z,93592.67
2018-04-22T14:40:00.284Z,93597.87
2018-04-22T14:42:27.832Z,93593.89
2018-04-22T14:45:07.033Z,93598.10
2018-04-22T14:47:34.588Z,93594.44
2018-04-22T14:56:44.231Z,93595.91
2018-04-22T14:59:11.783Z,93595.22
2018-04-22T15:01:39.418Z,93591.06
2018-04-22T15:04:07.186Z,93590.00
2018-04-22T15:06:34.733Z,93601.67
2018-04-22T15:09:02.271Z,93599.43
2018-04-22T15:11:30.144Z,93601.52
2018-04-22T15:13:57.685Z,93595.09
2018-04-22T15:16:25.240Z,93593.22
2018-04-22T15:18:52.805Z,93596.84
2018-04-22T15:21:20.352Z,93593.83
2018-04-22T15:23:47.917Z,93591.34
2018-04-22T15:26:15.635Z,93594.42
2018-04-22T15:28:43.236Z,93594.30
2018-04-22T15:31:10.841Z,93588.82
2018-04-22T15:33:38.399Z,93588.70
2018-04-22T15:36:05.977Z,93591.14
2018-04-22T15:38:33.516Z,93589.70
2018-04-22T15:41:01.085Z,93590.42
2018-04-22T15:43:28.633Z,93598.35
2018-04-22T15:45:56.192Z,93585.34
2018-04-22T15:48:23.771Z,93590.11
2018-04-22T15:50:51.321Z,93590.13
2018-04-22T15:53:18.860Z,93594.76
2018-04-22T15:55:46.445Z,93590.47
2018-04-22T15:58:14.001Z,93589.67
2018-04-22T16:00:41.531Z,93586.94
2018-04-22T16:03:09.111Z,93590.55
2018-04-22T16:05:36.645Z,93591.45
2018-04-22T16:08:04.210Z,93585.81
2018-04-22T16:10:31.779Z,93594.58
2018-04-22T16:12:59.322Z,93587.76
2018-04-22T16:15:26.870Z,93596.90
2018-04-22T16:17:54.603Z,93593.37
2018-04-22T16:20:22.155Z,93597.76
2018-04-22T16:22:49.718Z,93595.16
2018-04-22T16:25:17.601Z,93602.70
2018-04-22T16:27:45.196Z,93607.77
2018-04-22T16:30:12.764Z,93609.66
2018-04-22T16:32:40.322Z,93608.99
2018-04-22T16:35:07.878Z,93616.56
2018-04-22T16:37:35.422Z,93619.22
2018-04-22T16:40:03.020Z,93619.09
2018-04-22T16:42:30.580Z,93617.38
2018-04-22T16:44:58.120Z,93617.23
2018-04-22T16:47:25.952Z,93618.63
2018-04-22T16:49:53.587Z,93622.05
2018-04-22T16:52:21.142Z,93622.94
2018-04-22T16:54:48.826Z,93627.14
2018-04-22T16:57:16.371Z,93624.66
2018-04-22T16:59:43.952Z,93632.12
2018-04-22T17:02:11.698Z,93636.50
2018-04-22T17:04:39.246Z,93634.59
2018-04-22T17:07:06.841Z,93650.16
2018-04-22T17:09:34.475Z,93640.44
2018-04-22T17:12:02.041Z,93639.67
2018-04-22T17:14:29.592Z,93645.92
2018-04-22T17:16:57.156Z,93646.25
2018-04-22T17:19:24.706Z,93653.86
2018-04-22T17:21:52.261Z,93645.69
2018-04-22T17:24:19.856Z,93654.19
2018-04-22T17:26:47.428Z,93650.53
2018-04-22T17:29:14.972Z,93662.20
2018-04-22T17:31:42.553Z,93660.91
2018-04-22T17:34:10.196Z,93662.12
2018-04-22T17:36:37.738Z,93666.09
2018-04-22T17:39:06.268Z,93665.17
2018-04-22T17:48:16.068Z,93676.28
2018-04-22T17:50:43.640Z,93675.34
2018-04-22T17:53:11.229Z,93676.86
2018-04-22T17:55:38.961Z,93679.45
2018-04-22T17:58:06.552Z,93684.58
2018-04-22T18:00:34.223Z,93686.43
2018-04-22T18:03:01.846Z,93687.70
2018-04-22T18:05:29.439Z,93695.14
2018-04-22T18:07:56.993Z,93696.03
2018-04-22T18:10:24.594Z,93694.64
2018-04-22T18:12:52.185Z,93699.78
2018-04-22T18:15:19.782Z,93701.75
2018-04-22T18:17:47.663Z,93696.37
2018-04-22T18:20:15.241Z,93703.63
2018-04-22T18:22:42.800Z,93706.09
2018-04-22T18:25:10.501Z,93704.51
2018-04-22T18:27:38.089Z,93706.56
2018-04-22T18:30:05.744Z,93707.77
2018-04-22T18:32:33.640Z,93707.20
2018-04-22T18:35:01.203Z,93715.45
2018-04-22T18:37:28.786Z,93718.33
2018-04-22T18:39:56.735Z,93717.71
2018-04-22T18:42:24.297Z,93717.99
2018-04-22T18:44:51.874Z,93721.72
2018-04-22T18:47:19.808Z,93720.49
2018-04-22T18:49:47.368Z,93722.50
2018-04-22T18:52:14.903Z,93727.78
2018-04-22T18:54:42.494Z,93718.41
2018-04-22T18:57:10.046Z,93727.77
2018-04-22T18:59:37.680Z,93731.66
2018-04-22T19:02:05.637Z,93732.22
2018-04-22T19:04:33.209Z,93730.00
2018-04-22T19:07:00.853Z,93729.72
2018-04-22T19:09:28.821Z,93728.61
2018-04-22T19:11:56.373Z,93735.41
2018-04-22T19:14:23.923Z,93731.02
2018-04-22T19:16:51.677Z,93735.49
2018-04-22T19:19:19.249Z,93736.99
2018-04-22T19:21:46.823Z,93734.55
2018-04-22T19:24:14.708Z,93736.59
2018-04-22T19:26:42.267Z,93747.19
2018-04-22T19:29:09.817Z,93738.58
2018-04-22T19:31:37.490Z,93739.24
2018-04-22T19:34:05.043Z,93737.93
2018-04-22T19:36:32.596Z,93739.92
2018-04-22T19:39:00.341Z,93742.54
2018-04-22T19:41:27.937Z,93741.35
2018-04-22T19:43:55.528Z,93743.26
2018-04-22T19:46:23.462Z,93746.03
2018-04-22T19:48:51.015Z,93742.11
2018-04-22T19:51:18.564Z,93743.19
2018-04-22T19:53:46.176Z,93743.16
2018-04-22T19:56:13.722Z,93745.84
2018-04-22T19:58:41.278Z,93746.64
2018-04-22T20:01:08.859Z,93750.70
2018-04-22T20:03:36.417Z,93748.47
2018-04-22T20:06:03.982Z,93749.40
2018-04-22T20:08:31.658Z,93749.70
2018-04-22T20:10:59.243Z,93749.88
2018-04-22T20:13:26.782Z,93747.04
2018-04-22T20:15:54.686Z,93747.19
2018-04-22T20:18:22.237Z,93742.48
2018-04-22T20:20:49.785Z,93741.39
2018-04-22T20:23:17.351Z,93740.19
2018-04-22T20:25:44.904Z,93743.36
2018-04-22T20:28:12.463Z,93743.02
2018-04-22T20:30:40.074Z,93743.68
2018-04-22T20:33:07.625Z,93745.51
2018-04-22T20:35:35.214Z,93742.70
2018-04-22T20:38:03.090Z,93746.88
2018-04-22T20:40:30.641Z,93751.86
2018-04-22T20:42:58.179Z,93748.27
2018-04-22T20:45:25.917Z,93742.21
2018-04-22T20:47:53.466Z,93742.39
2018-04-22T20:50:21.012Z,93748.47
2018-04-22T20:52:48.630Z,93748.54
2018-04-22T20:55:16.193Z,93748.00
2018-04-22T20:57:43.750Z,93748.66
2018-04-22T21:00:11.328Z,93744.07
2018-04-22T21:02:38.883Z,93746.81
2018-04-22T21:05:06.439Z,93749.53
2018-04-22T21:07:34.161Z,93748.30
2018-04-22T21:10:01.708Z,93743.92
2018-04-22T21:12:29.267Z,93742.59
2018-04-22T21:14:57.045Z,93744.82
2018-04-22T21:17:24.582Z,93742.05
2018-04-22T21:19:52.135Z,93742.37
2018-04-22T21:22:19.700Z,93746.58
2018-04-22T21:24:47.240Z,93742.84
2018-04-22T21:27:14.787Z,93749.33
2018-04-22T21:29:42.357Z,93745.66
2018-04-22T21:32:09.894Z,93754.39
2018-04-22T21:34:37.439Z,93748.95
2018-04-22T21:37:05.011Z,93750.18
2018-04-22T21:39:32.547Z,93757.69
2018-04-22T21:42:00.088Z,93762.03
2018-04-22T21:44:27.637Z,93761.28
2018-04-22T21:46:55.211Z,93764.16
2018-04-22T21:49:22.926Z,93758.37
2018-04-22T21:51:50.472Z,93761.11
2018-04-22T21:54:18.014Z,93762.50
2018-04-22T21:56:45.575Z,93766.52
2018-04-22T21:59:13.148Z,93764.26
2018-04-22T22:01:40.691Z,93765.81
2018-04-22T22:04:08.550Z,93764.92
2018-04-22T22:06:36.106Z,93767.28
2018-04-22T22:09:03.716Z,93764.74
2018-04-22T22:11:31.527Z,93757.16
2018-04-22T22:13:59.070Z,93763.94
2018-04-22T22:16:26.655Z,93757.58
2018-04-22T22:18:54.529Z,93762.04
2018-04-22T22:21:22.097Z,93758.77
2018-04-22T22:23:49.651Z,93758.17
2018-04-22T22:26:17.225Z,93758.55
2018-04-22T22:28:44.763Z,93760.39
2018-04-22T22:31:12.298Z,93758.05
2018-04-22T22:33:39.857Z,93758.59
2018-04-22T22:36:07.391Z,93753.85
2018-04-22T22:38:34.932Z,93757.33
2018-04-22T22:41:02.671Z,93756.24
2018-04-22T22:43:30.243Z,93753.20
2018-04-22T22:45:57.791Z,93756.93
2018-04-22T22:48:25.470Z,93754.36
2018-04-22T22:50:53.010Z,93749.92
2018-04-22T22:53:20.556Z,93747.73
2018-04-22T22:55:48.425Z,93744.19
2018-04-22T22:58:15.965Z,93746.87
2018-04-22T23:00:43.506Z,93743.58
2018-04-22T23:03:11.087Z,93748.42
2018-04-22T23:05:38.637Z,93744.43
2018-04-22T23:08:06.183Z,93743.82
2018-04-22T23:10:33.769Z,93742.69
2018-04-22T23:13:01.330Z,93741.55
2018-04-22T23:15:28.859Z,93738.51
2018-04-22T23:17:56.723Z,93744.84
2018-04-22T23:20:24.276Z,93741.41
2018-04-22T23:22:51.815Z,93738.39
2018-04-22T23:25:19.400Z,93745.89
2018-04-22T23:27:46.956Z,93747.16
2018-04-22T23:30:14.497Z,93743.78
2018-04-22T23:32:42.069Z,93746.98
2018-04-22T23:35:09.607Z,93744.16
2018-04-22T23:37:37.160Z,93748.86
2018-04-22T23:40:04.824Z,93743.55
2018-04-22T23:42:32.395Z,93742.30
2018-04-22T23:44:59.943Z,93753.17
2018-04-22T23:47:27.807Z,93750.53
2018-04-22T23:49:55.349Z,93751.84
2018-04-22T23:52:22.926Z,93753.08
2018-04-22T23:54:50.603Z,93749.05
2018-04-22T23:57:18.148Z,93752.80
2018-04-22T23:59:46.257Z,93754.05
